Briefing drone pour Palaja

Rechercher une autre localisation

Conditions de vol :


Nous sommes le : Dimanche 14 avril 2024
Il est 00:53 UTC (02:53 LT)

Lever de soleil : 04:42 UTC (06:42 LT)
Coucher de soleil : 18:58 UTC (20:58 LT)

Météo

L'essentiel des conditions de vol

VIGILANCE MÉTÉO FRANCE - Aude (11)
Pas de vigilances particulieres
CARTE TEMSI
CARTES DES FRONTS
METAR de LFMK
LFMK 140030Z AUTO 17003KT 110V220 CAVOK 13/09 Q1025

Date d'émission: 14/04/2024
Heure d'émission: 00:30 UTC
Vent: 170° (variable du 110° au 220°) pour 3 KT (6 km/h)
Visibilité horizontale: > 10 km
Plafond : Plafond et visibilité OK (CAVOK)
Température: 13 °C
Point de rosée: 9 °C
Humidité: 77%
Pression (QNH): 1025 hPa
TAF de LFMK
LFMK 131800Z 1318/1415 CNL

Conditions prévues :

Heure d'émission : Bulletin éffectué le 13 à 18:00 UTC
Prévision : Valide du 13 a 18:00 UTC au 14 a 15:00 UTC
Nuages : à 0ft (0 m)
WEBCAM POUR PALAJA

Réglementation

Voler en sécurité

CARTES AERONAUTIQUE 1/500.000
CARTE AZBA (Reseau basse altitude)
CARTES VAC (LFMK)
SUP AIP




Chargement des AIP...
NOTAM (PALAJA + Terrain à proximité / FIR )




Chargement des NOTAMS...
CONTACT PREFECTURE 11
Aude (11) : [email protected]


Avertissement : Les données mises à disposition sont indicatives. Oxygène Drone ne pourra être tenu responsable de dégâts causés aux biens et aux personnes.